createdAt,value
2019-02-26T00:00:20.168Z,8.20
2019-02-26T00:02:48.605Z,8.17
2019-02-26T00:05:17.317Z,8.17
2019-02-26T00:07:44.418Z,8.17
2019-02-26T00:10:10.586Z,8.08
2019-02-26T00:12:37.010Z,8.11
2019-02-26T00:15:07.425Z,8.12
2019-02-26T00:17:38.546Z,8.04
2019-02-26T00:20:05.597Z,8.07
2019-02-26T00:22:32.392Z,8.00
2019-02-26T00:25:01.009Z,8.02
2019-02-26T00:27:30.110Z,7.88
2019-02-26T00:29:56.032Z,7.91
2019-02-26T00:32:22.604Z,7.90
2019-02-26T00:34:49.176Z,7.79
2019-02-26T00:37:15.578Z,7.82
2019-02-26T00:43:06.555Z,7.72
2019-02-26T00:45:34.066Z,7.73
2019-02-26T00:48:01.588Z,7.70
2019-02-26T00:50:28.502Z,7.68
2019-02-26T00:52:57.101Z,7.65
2019-02-26T00:55:27.313Z,7.67
2019-02-26T00:57:52.399Z,7.61
2019-02-26T01:00:18.895Z,7.64
2019-02-26T01:02:45.441Z,7.64
2019-02-26T01:05:15.709Z,7.69
2019-02-26T01:07:44.912Z,7.49
2019-02-26T01:10:13.401Z,7.49
2019-02-26T01:12:40.304Z,7.48
2019-02-26T01:15:17.446Z,7.47
2019-02-26T01:17:44.443Z,7.41
2019-02-26T01:20:13.208Z,7.39
2019-02-26T01:22:40.237Z,7.43
2019-02-26T01:25:10.290Z,7.34
2019-02-26T01:27:37.251Z,7.31
2019-02-26T01:30:07.185Z,7.33
2019-02-26T01:32:33.452Z,7.31
2019-02-26T01:35:00.876Z,7.33
2019-02-26T01:37:29.894Z,7.41
2019-02-26T01:39:56.503Z,7.42
2019-02-26T01:42:24.875Z,7.35
2019-02-26T01:44:51.250Z,7.39
2019-02-26T01:47:19.484Z,7.33
2019-02-26T01:49:46.442Z,7.33
2019-02-26T01:52:15.094Z,7.19
2019-02-26T01:54:42.531Z,7.20
2019-02-26T01:57:09.273Z,7.17
2019-02-26T01:59:36.007Z,7.17
2019-02-26T02:02:02.451Z,7.14
2019-02-26T02:04:28.830Z,7.19
2019-02-26T02:07:01.847Z,7.13
2019-02-26T02:09:29.203Z,7.03
2019-02-26T02:11:57.424Z,7.01
2019-02-26T02:14:23.781Z,7.02
2019-02-26T02:16:50.205Z,7.04
2019-02-26T02:19:20.116Z,6.96
2019-02-26T02:21:46.898Z,7.00
2019-02-26T02:24:15.566Z,6.96
2019-02-26T02:26:45.329Z,7.02
2019-02-26T02:29:12.666Z,7.01
2019-02-26T02:31:38.236Z,6.96
2019-02-26T02:34:06.245Z,6.91
2019-02-26T02:36:32.767Z,7.01
2019-02-26T02:38:59.225Z,6.94
2019-02-26T02:41:25.644Z,6.99
2019-02-26T02:43:51.976Z,6.89
2019-02-26T02:46:18.245Z,6.90
2019-02-26T02:48:44.677Z,6.89
2019-02-26T02:51:13.894Z,6.84
2019-02-26T02:53:40.108Z,6.86
2019-02-26T02:56:09.201Z,6.90
2019-02-26T02:58:35.032Z,6.83
2019-02-26T03:01:01.503Z,6.75
2019-02-26T03:03:40.994Z,6.73
2019-02-26T03:06:10.384Z,6.68
2019-02-26T03:08:39.308Z,6.63
2019-02-26T03:11:06.400Z,6.59
2019-02-26T03:13:32.663Z,6.69
2019-02-26T03:16:01.443Z,6.66
2019-02-26T03:18:27.315Z,6.58
2019-02-26T03:20:54.634Z,6.59
2019-02-26T03:23:21.633Z,6.56
2019-02-26T03:25:50.345Z,6.57
2019-02-26T03:28:16.326Z,6.54
2019-02-26T03:30:44.237Z,6.61
2019-02-26T03:33:11.017Z,6.63
2019-02-26T03:35:37.217Z,6.63
2019-02-26T03:38:03.730Z,6.63
2019-02-26T03:40:33.023Z,6.61
2019-02-26T03:42:58.408Z,6.64
2019-02-26T03:45:25.266Z,6.58
2019-02-26T03:47:51.498Z,6.66
2019-02-26T03:50:18.277Z,6.58
2019-02-26T03:52:45.020Z,6.61
2019-02-26T03:55:14.127Z,6.63
2019-02-26T03:57:43.642Z,6.58
2019-02-26T04:00:14.123Z,6.61
2019-02-26T04:02:43.338Z,6.67
2019-02-26T04:08:33.103Z,6.53
2019-02-26T04:11:01.908Z,6.54
2019-02-26T04:13:27.522Z,6.60
2019-02-26T04:15:56.338Z,6.60
2019-02-26T04:18:22.321Z,6.56
2019-02-26T04:20:48.857Z,6.52
2019-02-26T04:23:18.717Z,6.51
2019-02-26T04:25:54.171Z,6.57
2019-02-26T04:28:27.255Z,6.52
2019-02-26T04:30:59.706Z,6.53
2019-02-26T04:33:30.772Z,6.53
2019-02-26T04:36:02.089Z,6.59
2019-02-26T04:39:07.653Z,6.59
2019-02-26T04:42:16.833Z,7.52
2019-02-26T04:45:09.349Z,8.32
2019-02-26T04:47:51.850Z,7.53
2019-02-26T04:50:17.625Z,6.93
2019-02-26T04:52:43.831Z,6.75
2019-02-26T04:55:10.451Z,6.52
2019-02-26T04:57:39.420Z,6.43
2019-02-26T05:00:09.899Z,6.41
2019-02-26T05:02:35.557Z,6.44
2019-02-26T05:05:02.239Z,6.40
2019-02-26T05:07:28.582Z,6.42
2019-02-26T05:09:56.850Z,6.38
2019-02-26T05:12:25.247Z,6.41
2019-02-26T05:14:51.486Z,6.36
2019-02-26T05:17:19.062Z,6.36
2019-02-26T05:19:48.423Z,6.29
2019-02-26T05:22:22.709Z,6.35
2019-02-26T05:24:50.283Z,6.31
2019-02-26T05:27:19.718Z,6.37
2019-02-26T05:29:46.655Z,6.31
2019-02-26T05:32:13.330Z,6.31
2019-02-26T05:34:40.827Z,6.40
2019-02-26T05:37:10.969Z,6.38
2019-02-26T05:39:36.480Z,6.33
2019-02-26T05:42:04.097Z,6.33
2019-02-26T05:44:31.193Z,6.30
2019-02-26T05:46:58.883Z,6.28
2019-02-26T05:49:25.780Z,6.30
2019-02-26T05:51:53.516Z,6.40
2019-02-26T05:54:21.724Z,6.35
2019-02-26T05:56:49.747Z,6.33
2019-02-26T05:59:17.964Z,6.31
2019-02-26T06:01:46.538Z,6.36
2019-02-26T06:04:14.879Z,6.27
2019-02-26T06:06:41.129Z,6.28
2019-02-26T06:09:07.785Z,6.33
2019-02-26T06:11:38.599Z,6.31
2019-02-26T06:14:06.610Z,6.22
2019-02-26T06:16:31.490Z,6.35
2019-02-26T06:18:58.551Z,6.23
2019-02-26T06:21:26.051Z,6.36
2019-02-26T06:23:53.851Z,6.27
2019-02-26T06:26:20.476Z,6.22
2019-02-26T06:28:54.611Z,6.20
2019-02-26T06:31:22.100Z,6.17
2019-02-26T06:33:50.719Z,6.19
2019-02-26T06:36:18.444Z,6.25
2019-02-26T06:38:49.325Z,6.25
2019-02-26T06:41:13.980Z,6.36
2019-02-26T06:43:42.772Z,6.44
2019-02-26T06:46:09.821Z,6.39
2019-02-26T06:48:36.885Z,6.31
2019-02-26T06:51:04.699Z,6.34
2019-02-26T06:53:31.391Z,6.38
2019-02-26T06:55:58.547Z,6.35
2019-02-26T06:58:26.427Z,6.34
2019-02-26T07:00:55.499Z,6.40
2019-02-26T07:03:24.239Z,6.40
2019-02-26T07:05:50.033Z,6.42
2019-02-26T07:08:16.675Z,6.51
2019-02-26T07:10:43.606Z,6.44
2019-02-26T07:13:11.830Z,6.48
2019-02-26T07:15:38.385Z,6.42
2019-02-26T07:18:07.219Z,6.59
2019-02-26T07:20:34.319Z,6.68
2019-02-26T07:23:03.409Z,6.75
2019-02-26T07:25:31.779Z,6.63
2019-02-26T07:28:02.905Z,6.56
2019-02-26T07:30:29.915Z,6.71
2019-02-26T07:32:56.289Z,7.00
2019-02-26T07:35:22.589Z,7.09
2019-02-26T07:37:59.477Z,7.00
2019-02-26T07:40:28.458Z,6.87
2019-02-26T07:42:54.694Z,6.90
2019-02-26T07:45:22.863Z,6.93
2019-02-26T07:47:51.465Z,6.83
2019-02-26T07:50:17.728Z,6.87
2019-02-26T07:52:44.434Z,6.89
2019-02-26T07:55:12.135Z,6.95
2019-02-26T07:57:40.545Z,6.89
2019-02-26T08:00:16.565Z,6.81
2019-02-26T08:02:42.938Z,6.73
2019-02-26T08:05:10.371Z,6.80
2019-02-26T08:07:37.003Z,6.83
2019-02-26T08:10:16.974Z,6.86
2019-02-26T08:12:44.105Z,7.01
2019-02-26T08:15:15.448Z,7.04
2019-02-26T08:17:45.642Z,7.16
2019-02-26T08:20:14.308Z,7.29
2019-02-26T08:22:40.242Z,7.33
2019-02-26T08:25:34.407Z,7.31
2019-02-26T08:28:01.376Z,7.31
2019-02-26T08:30:27.901Z,7.49
2019-02-26T08:32:56.097Z,7.53
2019-02-26T08:35:23.046Z,7.62
2019-02-26T08:37:49.632Z,7.77
2019-02-26T08:40:16.098Z,7.96
2019-02-26T08:42:42.536Z,7.93
2019-02-26T08:45:12.489Z,7.94
2019-02-26T08:47:39.898Z,7.83
2019-02-26T08:50:10.022Z,8.01
2019-02-26T08:52:41.102Z,8.15
2019-02-26T08:55:10.730Z,8.21
2019-02-26T08:57:38.738Z,8.20
2019-02-26T09:00:11.399Z,8.14
2019-02-26T09:02:38.050Z,8.53
2019-02-26T09:05:07.641Z,8.41
2019-02-26T09:07:34.838Z,8.44
2019-02-26T09:10:01.364Z,8.53
2019-02-26T09:12:27.895Z,8.59
2019-02-26T09:14:54.577Z,8.47
2019-02-26T09:17:23.161Z,8.43
2019-02-26T09:19:50.914Z,8.45
2019-02-26T09:22:19.302Z,8.26
2019-02-26T09:24:46.841Z,8.39
2019-02-26T09:27:13.230Z,8.53
2019-02-26T09:29:41.893Z,8.65
2019-02-26T09:32:09.279Z,8.77
2019-02-26T09:34:39.345Z,8.68
2019-02-26T09:37:05.779Z,8.65
2019-02-26T09:39:36.002Z,8.78
2019-02-26T09:42:02.248Z,9.04
2019-02-26T09:44:30.953Z,9.22
2019-02-26T09:46:58.282Z,9.60
2019-02-26T09:49:26.272Z,9.71
2019-02-26T09:51:56.731Z,9.64
2019-02-26T09:54:22.635Z,9.68
2019-02-26T09:56:49.720Z,9.57
2019-02-26T09:59:16.610Z,9.85
2019-02-26T10:01:43.093Z,9.74
2019-02-26T10:04:09.344Z,9.39
2019-02-26T10:06:37.896Z,9.46
2019-02-26T10:09:04.907Z,9.32
2019-02-26T10:11:31.150Z,9.45
2019-02-26T10:13:57.954Z,9.48
2019-02-26T10:16:25.724Z,9.32
2019-02-26T10:18:54.441Z,9.19
2019-02-26T10:21:20.761Z,9.06
2019-02-26T10:23:51.441Z,9.17
2019-02-26T10:26:15.611Z,9.20
2019-02-26T10:28:43.409Z,9.25
2019-02-26T10:31:10.530Z,9.60
2019-02-26T10:33:40.184Z,9.63
2019-02-26T10:36:07.919Z,9.46
2019-02-26T10:38:36.008Z,9.24
2019-02-26T10:41:02.053Z,9.09
2019-02-26T10:43:28.530Z,9.08
2019-02-26T10:45:55.210Z,9.01
2019-02-26T10:48:27.911Z,8.90
2019-02-26T10:50:54.470Z,8.81
2019-02-26T10:53:22.550Z,8.86
2019-02-26T10:55:49.258Z,8.81
2019-02-26T10:58:15.527Z,8.76
2019-02-26T11:00:43.102Z,8.73
2019-02-26T11:03:12.095Z,8.86
2019-02-26T11:05:39.853Z,8.80
2019-02-26T11:08:09.145Z,8.89
2019-02-26T11:10:34.092Z,8.92
2019-02-26T11:13:00.793Z,8.82
2019-02-26T11:15:30.259Z,8.73
2019-02-26T11:17:55.937Z,8.83
2019-02-26T11:20:25.508Z,8.87
2019-02-26T11:22:52.074Z,8.82
2019-02-26T11:25:21.448Z,8.87
2019-02-26T11:27:48.409Z,8.81
2019-02-26T11:30:20.489Z,8.67
2019-02-26T11:32:47.060Z,8.81
2019-02-26T11:35:17.072Z,8.90
2019-02-26T11:37:45.396Z,8.97
2019-02-26T11:40:17.298Z,8.90
2019-02-26T11:42:46.579Z,8.96
2019-02-26T11:45:20.833Z,9.82
2019-02-26T11:47:47.477Z,10.07
2019-02-26T11:50:19.174Z,9.44
2019-02-26T11:52:45.673Z,9.36
2019-02-26T11:55:13.806Z,9.34
2019-02-26T11:57:42.335Z,9.33
2019-02-26T12:00:24.270Z,9.45
2019-02-26T12:02:43.648Z,9.34
2019-02-26T12:05:10.797Z,9.42
2019-02-26T12:07:37.389Z,9.59
2019-02-26T12:10:10.391Z,10.04
2019-02-26T12:12:36.946Z,10.22
2019-02-26T12:15:12.337Z,10.50
2019-02-26T12:17:37.800Z,10.59
2019-02-26T12:20:07.357Z,10.86
2019-02-26T12:22:33.710Z,10.78
2019-02-26T12:25:02.704Z,10.40
2019-02-26T12:27:28.345Z,10.69
2019-02-26T12:29:55.118Z,10.85
2019-02-26T12:32:22.370Z,10.75
2019-02-26T12:34:51.479Z,11.01
2019-02-26T12:37:18.228Z,11.33
2019-02-26T12:39:47.461Z,11.63
2019-02-26T12:42:13.991Z,11.98
2019-02-26T12:44:44.820Z,12.37
2019-02-26T12:47:11.523Z,12.90
2019-02-26T12:49:39.128Z,12.75
2019-02-26T12:52:05.841Z,12.20
2019-02-26T12:54:33.652Z,12.29
2019-02-26T12:57:04.040Z,12.47
2019-02-26T12:59:29.031Z,12.28
2019-02-26T13:01:55.849Z,12.29
2019-02-26T13:04:24.912Z,12.16
2019-02-26T13:06:52.032Z,12.38
2019-02-26T13:09:18.709Z,12.44
2019-02-26T13:12:00.725Z,11.97
2019-02-26T13:14:13.332Z,11.67
2019-02-26T13:16:39.758Z,11.32
2019-02-26T13:19:06.075Z,11.57
2019-02-26T13:21:32.556Z,11.23
2019-02-26T13:24:11.465Z,11.43
2019-02-26T13:26:27.401Z,11.49
2019-02-26T13:28:56.183Z,11.70
2019-02-26T13:31:22.742Z,11.34
2019-02-26T13:33:49.445Z,11.45
2019-02-26T13:36:16.553Z,11.09
2019-02-26T13:38:48.178Z,11.12
2019-02-26T13:41:29.009Z,11.10
2019-02-26T13:43:39.342Z,11.20
2019-02-26T13:46:05.970Z,11.22
2019-02-26T13:48:32.481Z,11.36
2019-02-26T13:50:58.896Z,11.45
2019-02-26T13:53:25.957Z,11.56
2019-02-26T13:55:52.484Z,11.52
2019-02-26T13:58:19.381Z,11.52
2019-02-26T14:00:46.951Z,11.73
2019-02-26T14:03:13.766Z,11.87
2019-02-26T14:05:39.983Z,11.77
2019-02-26T14:08:06.658Z,11.42
2019-02-26T14:10:32.992Z,11.49
2019-02-26T14:12:59.840Z,11.78
2019-02-26T14:15:27.257Z,11.85
2019-02-26T14:17:53.691Z,11.63
2019-02-26T14:20:20.198Z,11.45
2019-02-26T14:22:46.687Z,11.47
2019-02-26T14:25:13.155Z,11.51
2019-02-26T14:27:39.487Z,11.51
2019-02-26T14:30:14.121Z,11.47
2019-02-26T14:32:40.422Z,11.44
2019-02-26T14:35:12.603Z,11.34
2019-02-26T14:37:39.266Z,11.49
2019-02-26T14:40:08.760Z,11.59
2019-02-26T14:42:35.257Z,11.32
2019-02-26T14:45:01.802Z,11.38
2019-02-26T14:47:30.015Z,11.51
2019-02-26T14:49:57.103Z,11.54
2019-02-26T14:52:23.533Z,11.47
2019-02-26T14:54:49.784Z,11.48
2019-02-26T14:57:16.232Z,11.24
2019-02-26T14:59:42.986Z,11.10
2019-02-26T15:02:09.342Z,10.99
2019-02-26T15:04:35.633Z,10.94
2019-02-26T15:07:01.962Z,10.88
2019-02-26T15:09:28.581Z,10.85
2019-02-26T15:11:55.066Z,10.86
2019-02-26T15:14:21.360Z,10.84
2019-02-26T15:16:47.703Z,10.63
2019-02-26T15:19:14.113Z,10.49
2019-02-26T15:21:40.580Z,10.60
2019-02-26T15:24:07.222Z,10.70
2019-02-26T15:26:33.700Z,10.85
2019-02-26T15:29:00.346Z,10.89
2019-02-26T15:31:26.772Z,11.03
2019-02-26T15:33:52.950Z,11.16
2019-02-26T15:36:19.210Z,11.12
2019-02-26T15:38:46.429Z,11.02
2019-02-26T15:41:13.141Z,10.69
2019-02-26T15:43:39.453Z,10.67
2019-02-26T15:46:07.653Z,10.59
2019-02-26T15:48:36.453Z,10.58
2019-02-26T15:51:02.812Z,10.49
2019-02-26T15:53:29.337Z,10.45
2019-02-26T15:55:59.207Z,10.36
2019-02-26T15:58:23.764Z,10.13
2019-02-26T16:00:50.557Z,10.22
2019-02-26T16:03:21.729Z,10.06
2019-02-26T16:05:48.526Z,10.06
2019-02-26T16:08:15.008Z,9.80
2019-02-26T16:14:15.773Z,10.00
2019-02-26T16:16:42.089Z,9.85
2019-02-26T16:19:08.677Z,9.98
2019-02-26T16:21:35.456Z,9.90
2019-02-26T16:24:01.987Z,9.95
2019-02-26T16:26:28.289Z,9.88
2019-02-26T16:28:56.415Z,9.67
2019-02-26T16:31:22.855Z,9.83
2019-02-26T16:33:49.253Z,9.92
2019-02-26T16:36:16.134Z,9.81
2019-02-26T16:38:42.426Z,9.86
2019-02-26T16:41:09.074Z,9.97
2019-02-26T16:43:35.492Z,10.23
2019-02-26T16:46:02.220Z,10.40
2019-02-26T16:48:28.654Z,10.44
2019-02-26T16:50:55.521Z,10.20
2019-02-26T16:53:22.367Z,10.00
2019-02-26T16:55:49.633Z,10.10
2019-02-26T16:58:16.183Z,10.20
2019-02-26T17:00:48.824Z,10.29
2019-02-26T17:03:15.419Z,10.14
2019-02-26T17:05:42.113Z,10.25
2019-02-26T17:08:08.716Z,10.14
2019-02-26T17:10:35.382Z,9.98
2019-02-26T17:13:03.032Z,9.75
2019-02-26T17:15:34.086Z,9.60
2019-02-26T17:18:00.399Z,9.79
2019-02-26T17:20:27.604Z,9.69
2019-02-26T17:22:55.409Z,9.93
2019-02-26T17:25:22.251Z,9.85
2019-02-26T17:27:48.866Z,9.89
2019-02-26T17:30:16.717Z,9.99
2019-02-26T17:32:43.351Z,9.92
2019-02-26T17:35:10.947Z,9.98
2019-02-26T17:37:41.161Z,10.11
2019-02-26T17:40:12.006Z,10.01
2019-02-26T17:42:38.452Z,9.97
2019-02-26T17:45:10.902Z,9.83
2019-02-26T17:47:37.767Z,9.71
2019-02-26T17:50:09.657Z,9.60
2019-02-26T17:52:36.081Z,9.57
2019-02-26T17:55:05.077Z,9.68
2019-02-26T17:57:34.660Z,9.52
2019-02-26T18:00:00.481Z,9.59
2019-02-26T18:02:27.561Z,9.63
2019-02-26T18:04:54.920Z,9.51
2019-02-26T18:07:21.385Z,9.42
2019-02-26T18:12:55.772Z,9.30
2019-02-26T18:15:22.383Z,9.23
2019-02-26T18:17:48.535Z,9.22
2019-02-26T18:20:17.988Z,9.23
2019-02-26T18:22:44.591Z,9.19
2019-02-26T18:25:16.459Z,9.17
2019-02-26T18:27:42.658Z,9.19
2019-02-26T18:30:12.863Z,9.04
2019-02-26T18:32:39.024Z,9.24
2019-02-26T18:35:05.254Z,9.16
2019-02-26T18:37:31.693Z,9.19
2019-02-26T18:39:57.883Z,9.18
2019-02-26T18:42:23.982Z,9.06
2019-02-26T18:44:51.872Z,9.36
2019-02-26T18:47:18.254Z,9.64
2019-02-26T18:49:44.407Z,9.69
2019-02-26T18:52:10.623Z,9.53
2019-02-26T18:54:36.810Z,9.50
2019-02-26T18:57:02.946Z,9.57
2019-02-26T18:59:29.352Z,9.66
2019-02-26T19:01:55.474Z,9.62
2019-02-26T19:04:21.520Z,9.70
2019-02-26T19:06:47.544Z,9.66
2019-02-26T19:09:15.263Z,9.74
2019-02-26T19:11:41.414Z,9.55
2019-02-26T19:14:09.238Z,9.63
2019-02-26T19:16:35.503Z,9.70
2019-02-26T19:19:01.635Z,9.66
2019-02-26T19:21:27.767Z,9.60
2019-02-26T19:23:53.884Z,9.39
2019-02-26T19:26:20.010Z,9.25
2019-02-26T19:28:46.043Z,9.22
2019-02-26T19:31:12.199Z,9.23
2019-02-26T19:33:38.320Z,9.15
2019-02-26T19:36:04.438Z,9.11
2019-02-26T19:38:30.781Z,9.11
2019-02-26T19:41:00.685Z,9.11
2019-02-26T19:43:28.703Z,9.16
2019-02-26T19:45:54.737Z,9.14
2019-02-26T19:48:20.816Z,9.19
2019-02-26T19:50:48.769Z,9.20
2019-02-26T19:53:15.189Z,9.22
2019-02-26T19:55:44.148Z,9.17
2019-02-26T19:58:10.182Z,9.15
2019-02-26T20:00:36.219Z,9.23
2019-02-26T20:03:04.874Z,9.18
2019-02-26T20:05:30.261Z,9.17
2019-02-26T20:07:56.287Z,9.14
2019-02-26T20:10:22.293Z,9.17
2019-02-26T20:12:50.348Z,9.06
2019-02-26T20:15:16.360Z,9.08
2019-02-26T20:17:42.354Z,9.06
2019-02-26T20:20:10.806Z,9.02
2019-02-26T20:22:37.025Z,9.04
2019-02-26T20:25:09.466Z,9.04
2019-02-26T20:27:35.948Z,9.03
2019-02-26T20:30:04.611Z,9.03
2019-02-26T20:32:31.595Z,9.16
2019-02-26T20:34:57.828Z,9.17
2019-02-26T20:37:24.424Z,9.36
2019-02-26T20:39:51.285Z,9.30
2019-02-26T20:42:17.672Z,9.50
2019-02-26T20:44:45.488Z,9.51
2019-02-26T20:47:11.672Z,9.47
2019-02-26T20:49:37.830Z,9.46
2019-02-26T20:52:04.049Z,9.68
2019-02-26T20:54:30.104Z,9.66
2019-02-26T20:56:56.219Z,9.48
2019-02-26T20:59:22.618Z,9.48
2019-02-26T21:01:49.568Z,9.59
2019-02-26T21:04:15.865Z,9.61
2019-02-26T21:06:41.949Z,9.57
2019-02-26T21:09:08.087Z,9.48
2019-02-26T21:11:34.184Z,9.52
2019-02-26T21:14:00.224Z,9.37
2019-02-26T21:16:26.449Z,9.38
2019-02-26T21:18:52.578Z,9.46
2019-02-26T21:21:18.636Z,9.60
2019-02-26T21:23:44.960Z,9.53
2019-02-26T21:26:10.997Z,9.41
2019-02-26T21:28:37.284Z,9.46
2019-02-26T21:31:03.446Z,9.54
2019-02-26T21:33:30.804Z,9.42
2019-02-26T21:35:57.570Z,9.23
2019-02-26T21:38:23.631Z,9.16
2019-02-26T21:40:51.978Z,9.06
2019-02-26T21:43:17.746Z,9.01
2019-02-26T21:45:44.537Z,8.97
2019-02-26T21:48:10.866Z,8.87
2019-02-26T21:50:37.049Z,8.90
2019-02-26T21:53:03.161Z,8.88
2019-02-26T21:55:33.814Z,8.83
2019-02-26T21:57:57.800Z,8.83
2019-02-26T22:00:23.862Z,8.83
2019-02-26T22:02:52.426Z,8.73
2019-02-26T22:05:17.841Z,8.70
2019-02-26T22:07:44.010Z,8.60
2019-02-26T22:10:15.779Z,8.29
2019-02-26T22:12:41.937Z,7.85
2019-02-26T22:15:11.078Z,7.46
2019-02-26T22:17:37.646Z,7.25
2019-02-26T22:20:09.283Z,7.03
2019-02-26T22:22:35.152Z,6.83
2019-02-26T22:25:09.225Z,6.54
2019-02-26T22:27:29.174Z,6.46
2019-02-26T22:29:55.222Z,6.36
2019-02-26T22:32:21.351Z,5.98
2019-02-26T22:34:47.485Z,6.08
2019-02-26T22:37:13.494Z,5.85
2019-02-26T22:39:39.530Z,5.78
2019-02-26T22:42:07.899Z,5.94
2019-02-26T22:44:33.600Z,5.79
2019-02-26T22:46:59.740Z,5.77
2019-02-26T22:49:25.774Z,5.83
2019-02-26T22:51:51.930Z,5.69
2019-02-26T22:54:18.009Z,5.77
2019-02-26T22:56:44.310Z,5.41
2019-02-26T23:02:23.099Z,5.48
2019-02-26T23:04:52.546Z,5.52
2019-02-26T23:07:17.196Z,5.62
2019-02-26T23:09:43.764Z,5.63
2019-02-26T23:12:09.811Z,5.65
2019-02-26T23:14:38.646Z,5.71
2019-02-26T23:17:05.254Z,5.64
2019-02-26T23:19:31.369Z,5.56
2019-02-26T23:21:57.410Z,5.48
2019-02-26T23:24:27.743Z,5.46
2019-02-26T23:26:51.640Z,5.33
2019-02-26T23:29:17.791Z,5.41
2019-02-26T23:31:44.222Z,5.41
2019-02-26T23:34:10.284Z,5.21
2019-02-26T23:36:36.375Z,5.30
2019-02-26T23:39:05.146Z,5.36
2019-02-26T23:41:33.080Z,5.38
2019-02-26T23:43:59.389Z,5.40
2019-02-26T23:46:29.518Z,5.38
2019-02-26T23:48:53.604Z,5.55
2019-02-26T23:51:21.138Z,5.36
2019-02-26T23:53:47.444Z,5.40
2019-02-26T23:56:13.510Z,5.48
2019-02-26T23:58:39.662Z,5.34
